»·PEaware :: SWA3958 KELP-KPHX

SWA3958 :: KELP-KPHX

FLIGHT INFORMATION

Flight Status: Arrived
Operator:
Southwest Airlines
More flights by this operator :: More flights under this callsign
Pilot: Mike C. (16705)
Aircraft: BOEING 737-800
(B738)
More flights by this aircraft type
Origin: KELP El Paso Intl
United States
Destination: KPHX Phoenix Sky Harbor Intl
United States
More flights between these airports :: More routes between these airports
Route: ATKNN5 ATKNN DRRVR PINNG1
File this flight plan on PilotEdge
Remarks: PBN / A1B1C1D1S1S2 DOF / 180423 REG / N838NN OPR / SWA PER / C RMK / TCAS SIMBRIEF
Altitude:
(Current/Filed)
38,000ft
Speed:
(Current/Filed)
461kts
Departed: 22-Apr-18 05:02 PM
Arrived: 22-Apr-18 06:00 PM
Distance/Time
Traveled:
300nm/0:58
Distance/Time
To Go:
Arrived

Flight Plot

Page will automatically refresh every two minutes.

Flight plan parsing failed; only flown route is shown


Map Options




Map Legend


Flown Route
Filed Route
Departure Airport
Arrival Airport
Navaid (VOR, NDB)
Fix

Horizontal Profiles

Position Reports

Time Latitude Longitude Heading Altitude Ground
Speed
22-Apr-18 16:25 31.800157 -106.395530 178 3966ft 0kts
22-Apr-18 16:26 31.800157 -106.395530 178 3966ft 0kts
22-Apr-18 16:27 31.800157 -106.395530 178 3966ft 0kts
22-Apr-18 16:28 31.800157 -106.395530 178 3966ft 0kts
22-Apr-18 16:29 31.800157 -106.395530 178 3966ft 0kts
22-Apr-18 16:30 31.800157 -106.395530 178 3966ft 0kts
22-Apr-18 16:31 31.800157 -106.395530 178 3966ft 0kts
22-Apr-18 16:32 31.800157 -106.395530 178 3966ft 0kts
22-Apr-18 16:33 31.800157 -106.395530 178 3966ft 0kts
22-Apr-18 16:34 31.800157 -106.395530 178 3966ft 0kts
22-Apr-18 16:35 31.800157 -106.395530 178 3966ft 0kts
22-Apr-18 16:36 31.800157 -106.395530 178 3966ft 0kts
22-Apr-18 16:37 31.800157 -106.395530 178 3966ft 0kts
22-Apr-18 16:38 31.800157 -106.395530 178 3966ft 0kts
22-Apr-18 16:39 31.800157 -106.395530 178 3966ft 0kts
22-Apr-18 16:40 31.800157 -106.395530 178 3966ft 0kts
22-Apr-18 16:41 31.800157 -106.395530 178 3966ft 0kts
22-Apr-18 16:42 31.800157 -106.395530 178 3966ft 0kts
22-Apr-18 16:43 31.800157 -106.395530 178 3966ft 0kts
22-Apr-18 16:44 31.800157 -106.395530 178 3966ft 0kts
22-Apr-18 16:45 31.800157 -106.395530 178 3966ft 0kts
22-Apr-18 16:46 31.800157 -106.395530 178 3966ft 0kts
22-Apr-18 16:47 31.800496 -106.395591 155 3966ft 2kts
22-Apr-18 16:48 31.800868 -106.396327 89 3966ft 0kts
22-Apr-18 16:49 31.800868 -106.396327 89 3966ft 0kts
22-Apr-18 16:50 31.800868 -106.396327 89 3966ft 0kts
22-Apr-18 16:51 31.800868 -106.396303 89 3966ft 2kts
22-Apr-18 16:52 31.801193 -106.394938 87 3966ft 9kts
22-Apr-18 16:53 31.800407 -106.390916 110 3966ft 15kts
22-Apr-18 16:54 31.800087 -106.386541 95 3966ft 13kts
22-Apr-18 16:55 31.799865 -106.381107 92 3966ft 19kts
22-Apr-18 16:56 31.799597 -106.374413 92 3966ft 21kts
22-Apr-18 16:57 31.799373 -106.367632 91 3966ft 16kts
22-Apr-18 16:58 31.799555 -106.363854 14 3966ft 6kts
22-Apr-18 16:59 31.800054 -106.363794 1 3966ft 0kts
22-Apr-18 17:00 31.800771 -106.363960 298 3966ft 2kts
22-Apr-18 17:01 31.801725 -106.383326 272 3992ft 177kts
22-Apr-18 17:02 31.788098 -106.440900 235 6775ft 223kts
22-Apr-18 17:03 31.766135 -106.518852 287 9101ft 292kts
22-Apr-18 17:04 31.816911 -106.598086 307 11750ft 326kts
22-Apr-18 17:05 31.877142 -106.685388 306 14827ft 354kts
22-Apr-18 17:06 31.938954 -106.778062 293 17939ft 365kts
22-Apr-18 17:07 31.930977 -106.892761 252 20769ft 368kts
22-Apr-18 17:08 31.901947 -107.010524 256 23145ft 380kts
22-Apr-18 17:09 31.906443 -107.134561 275 25585ft 386kts
22-Apr-18 17:10 31.923402 -107.259821 275 27617ft 390kts
22-Apr-18 17:11 31.940187 -107.387237 274 29349ft 395kts
22-Apr-18 17:12 31.956990 -107.515893 274 30805ft 401kts
22-Apr-18 17:13 31.973977 -107.644912 273 32605ft 395kts
22-Apr-18 17:14 31.990331 -107.771493 273 34304ft 388kts
22-Apr-18 17:15 32.006416 -107.897512 273 35715ft 387kts
22-Apr-18 17:16 32.022211 -108.023067 273 36958ft 386kts
22-Apr-18 17:17 32.037701 -108.147898 273 38089ft 387kts
22-Apr-18 17:18 32.053164 -108.273685 273 38081ft 385kts
22-Apr-18 17:19 32.068865 -108.399298 273 38102ft 388kts
22-Apr-18 17:20 32.084372 -108.525076 273 38095ft 388kts
22-Apr-18 17:21 32.099727 -108.651383 274 38085ft 390kts
22-Apr-18 17:22 32.115051 -108.778779 274 38074ft 392kts
22-Apr-18 17:23 32.130277 -108.906505 274 38062ft 394kts
22-Apr-18 17:24 32.142534 -109.008309 274 38056ft 395kts
22-Apr-18 17:25 32.157513 -109.136692 274 38046ft 395kts
22-Apr-18 17:26 32.172334 -109.265141 274 38037ft 395kts
22-Apr-18 17:27 32.196286 -109.392863 280 38029ft 399kts
22-Apr-18 17:28 32.223431 -109.519524 280 38022ft 398kts
22-Apr-18 17:29 32.250066 -109.646059 280 38025ft 397kts
22-Apr-18 17:30 32.276907 -109.772936 280 38022ft 397kts
22-Apr-18 17:31 32.303420 -109.899375 280 38024ft 396kts
22-Apr-18 17:32 32.329750 -110.026141 280 38011ft 397kts
22-Apr-18 17:33 32.355808 -110.152423 280 36873ft 394kts
22-Apr-18 17:34 32.381748 -110.278879 280 34060ft 398kts
22-Apr-18 17:35 32.407827 -110.405723 281 31719ft 391kts
22-Apr-18 17:36 32.432853 -110.529204 281 29655ft 382kts
22-Apr-18 17:37 32.457239 -110.650666 281 27662ft 375kts
22-Apr-18 17:38 32.499731 -110.763229 301 25246ft 383kts
22-Apr-18 17:39 32.557793 -110.865013 302 23727ft 365kts
22-Apr-18 17:40 32.615474 -110.965681 302 21662ft 362kts
22-Apr-18 17:41 32.670834 -111.063012 302 19948ft 353kts
22-Apr-18 17:42 32.725246 -111.158989 302 18138ft 348kts
22-Apr-18 17:43 32.778926 -111.253500 302 16468ft 341kts
22-Apr-18 17:44 32.830986 -111.345720 303 14917ft 332kts
22-Apr-18 17:45 32.881831 -111.436166 303 13485ft 322kts
22-Apr-18 17:46 32.943846 -111.504727 335 12539ft 306kts
22-Apr-18 17:47 33.021949 -111.542491 337 11302ft 300kts
22-Apr-18 17:48 33.097656 -111.579329 336 10467ft 280kts
22-Apr-18 17:49 33.167332 -111.613881 336 9819ft 257kts
22-Apr-18 17:50 33.231769 -111.646024 333 8855ft 249kts
22-Apr-18 17:51 33.293241 -111.681805 331 7714ft 243kts
22-Apr-18 17:52 33.350056 -111.715115 331 6544ft 217kts
22-Apr-18 17:53 33.402471 -111.748960 312 4970ft 210kts
22-Apr-18 17:54 33.427210 -111.809457 281 4037ft 189kts
22-Apr-18 17:55 33.428787 -111.868157 267 3280ft 166kts
22-Apr-18 17:56 33.428795 -111.918119 267 2512ft 134kts
22-Apr-18 17:57 33.428622 -111.961941 269 1749ft 130kts
22-Apr-18 17:58 33.428883 -112.005889 270 1158ft 125kts
22-Apr-18 17:59 33.429539 -112.021630 7 1143ft 7kts
22-Apr-18 18:00 33.429985 -112.022036 264 1143ft 10kts
22-Apr-18 18:01 33.431376 -112.025389 357 1143ft 14kts
22-Apr-18 18:02 33.432061 -112.024422 82 1143ft 12kts
22-Apr-18 18:03 33.432146 -112.018555 92 1143ft 21kts
22-Apr-18 18:04 33.432116 -112.011132 90 1143ft 22kts
22-Apr-18 18:05 33.432138 -112.003731 89 1143ft 22kts
22-Apr-18 18:06 33.432860 -111.999304 86 1143ft 11kts
22-Apr-18 18:07 33.434022 -111.997316 74 1143ft 1kts
22-Apr-18 18:08 33.434035 -111.997260 74 1143ft 0kts

Navigation Log

Ident Type
Flight plan parsing failed, navigation log unavailable